createdAt,value
2023-01-23T00:02:18.378Z,73.44
2023-01-23T00:04:53.351Z,73.45
2023-01-23T00:07:24.069Z,73.34
2023-01-23T00:09:56.434Z,73.24
2023-01-23T00:12:29.057Z,73.20
2023-01-23T00:15:01.589Z,73.23
2023-01-23T00:17:34.128Z,73.02
2023-01-23T00:20:07.566Z,73.23
2023-01-23T00:22:40.013Z,73.06
2023-01-23T00:25:12.756Z,72.88
2023-01-23T00:27:45.207Z,73.01
2023-01-23T00:30:18.721Z,72.96
2023-01-23T00:32:51.174Z,73.05
2023-01-23T00:35:24.009Z,73.08
2023-01-23T00:37:58.007Z,73.16
2023-01-23T00:40:30.531Z,73.04
2023-01-23T00:43:02.834Z,72.99
2023-01-23T00:45:36.486Z,73.23
2023-01-23T00:48:09.652Z,73.23
2023-01-23T00:50:42.081Z,73.19
2023-01-23T00:53:14.614Z,73.32
2023-01-23T00:55:47.143Z,73.24
2023-01-23T00:58:19.782Z,73.24
2023-01-23T01:00:52.518Z,72.92
2023-01-23T01:03:26.120Z,73.00
2023-01-23T01:05:59.294Z,73.27
2023-01-23T01:08:33.470Z,73.19
2023-01-23T01:11:07.060Z,73.15
2023-01-23T01:13:39.508Z,73.19
2023-01-23T01:16:13.004Z,73.07
2023-01-23T01:18:46.286Z,73.12
2023-01-23T01:21:19.764Z,73.21
2023-01-23T01:23:52.576Z,73.11
2023-01-23T01:26:26.317Z,73.09
2023-01-23T01:29:00.232Z,73.11
2023-01-23T01:31:33.027Z,73.04
2023-01-23T01:34:05.482Z,73.03
2023-01-23T01:36:37.982Z,73.09
2023-01-23T01:39:10.632Z,72.96
2023-01-23T01:41:43.106Z,73.10
2023-01-23T01:44:19.620Z,73.09
2023-01-23T01:46:52.965Z,73.04
2023-01-23T01:49:30.161Z,73.02
2023-01-23T01:52:06.934Z,73.06
2023-01-23T01:54:45.131Z,73.29
2023-01-23T01:57:21.508Z,73.15
2023-01-23T01:59:59.004Z,73.06
2023-01-23T02:02:35.533Z,73.12
2023-01-23T02:05:12.082Z,72.92
2023-01-23T02:07:48.986Z,72.75
2023-01-23T02:10:22.285Z,72.96
2023-01-23T02:12:57.721Z,73.21
2023-01-23T02:15:30.251Z,73.15
2023-01-23T02:18:03.089Z,73.06
2023-01-23T02:20:35.659Z,73.06
2023-01-23T02:23:15.785Z,73.11
2023-01-23T02:25:56.764Z,73.21
2023-01-23T02:28:43.422Z,73.17
2023-01-23T02:31:17.358Z,73.04
2023-01-23T02:33:56.347Z,72.91
2023-01-23T02:36:33.211Z,72.95
2023-01-23T02:39:09.815Z,72.80
2023-01-23T02:41:44.177Z,72.88
2023-01-23T02:44:26.366Z,72.98
2023-01-23T02:47:04.322Z,73.10
2023-01-23T02:49:37.180Z,73.01
2023-01-23T02:52:10.643Z,72.89
2023-01-23T02:54:43.051Z,72.95
2023-01-23T02:57:15.677Z,72.89
2023-01-23T03:00:05.558Z,72.63
2023-01-23T03:02:40.249Z,72.64
2023-01-23T03:05:15.576Z,72.79
2023-01-23T03:07:48.001Z,72.78
2023-01-23T03:10:21.185Z,72.63
2023-01-23T03:12:54.121Z,72.55
2023-01-23T03:15:27.129Z,72.47
2023-01-23T03:17:59.953Z,72.51
2023-01-23T03:20:38.893Z,72.55
2023-01-23T03:23:11.759Z,72.62
2023-01-23T03:25:49.053Z,72.44
2023-01-23T03:28:39.204Z,72.41
2023-01-23T03:31:12.078Z,72.44
2023-01-23T03:33:47.206Z,72.35
2023-01-23T03:36:21.127Z,72.44
2023-01-23T03:39:26.128Z,72.42
2023-01-23T03:41:59.353Z,72.38
2023-01-23T03:44:31.970Z,72.34
2023-01-23T03:47:04.335Z,72.38
2023-01-23T03:49:36.962Z,72.51
2023-01-23T03:52:09.807Z,72.35
2023-01-23T03:54:43.571Z,72.38
2023-01-23T03:57:16.115Z,72.21
2023-01-23T04:00:08.462Z,72.23
2023-01-23T04:02:49.231Z,72.15
2023-01-23T04:05:22.763Z,72.11
2023-01-23T04:07:55.361Z,72.09
2023-01-23T04:10:29.197Z,71.97
2023-01-23T04:13:06.705Z,72.07
2023-01-23T04:15:39.289Z,72.21
2023-01-23T04:18:12.538Z,72.23
2023-01-23T04:20:44.860Z,72.22
2023-01-23T04:23:17.594Z,72.08
2023-01-23T04:25:50.394Z,72.36
2023-01-23T04:28:22.862Z,72.48
2023-01-23T04:30:56.051Z,72.39
2023-01-23T04:33:34.883Z,71.98
2023-01-23T04:36:09.529Z,72.06
2023-01-23T04:38:42.411Z,72.19
2023-01-23T04:41:27.922Z,72.39
2023-01-23T04:44:21.143Z,71.94
2023-01-23T04:47:19.747Z,71.34
2023-01-23T04:49:53.939Z,71.36
2023-01-23T04:52:26.423Z,71.25
2023-01-23T04:55:02.542Z,71.51
2023-01-23T04:57:35.185Z,71.47
2023-01-23T05:00:17.241Z,71.50
2023-01-23T05:02:50.897Z,71.50
2023-01-23T05:05:24.036Z,71.53
2023-01-23T05:07:56.883Z,71.46
2023-01-23T05:10:29.843Z,71.57
2023-01-23T05:13:03.523Z,71.75
2023-01-23T05:15:36.186Z,71.59
2023-01-23T05:18:10.918Z,71.79
2023-01-23T05:20:43.531Z,71.94
2023-01-23T05:23:16.064Z,71.89
2023-01-23T05:25:53.581Z,72.09
2023-01-23T05:28:26.197Z,72.25
2023-01-23T05:31:00.424Z,71.99
2023-01-23T05:33:45.190Z,72.09
2023-01-23T05:36:18.726Z,72.07
2023-01-23T05:38:51.472Z,72.16
2023-01-23T05:41:25.712Z,72.62
2023-01-23T05:44:19.352Z,72.78
2023-01-23T05:46:59.245Z,72.33
2023-01-23T05:49:31.678Z,72.02
2023-01-23T05:52:04.413Z,71.90
2023-01-23T05:54:37.472Z,71.92
2023-01-23T05:57:11.646Z,71.94
2023-01-23T06:00:14.344Z,71.84
2023-01-23T06:03:12.704Z,71.51
2023-01-23T06:06:08.258Z,71.84
2023-01-23T06:08:41.166Z,71.99
2023-01-23T06:11:13.798Z,72.04
2023-01-23T06:13:47.036Z,72.21
2023-01-23T06:16:20.052Z,72.20
2023-01-23T06:18:52.674Z,71.98
2023-01-23T06:21:25.425Z,72.01
2023-01-23T06:24:03.390Z,72.23
2023-01-23T06:26:38.781Z,72.45
2023-01-23T06:29:12.447Z,72.52
2023-01-23T06:31:46.319Z,72.57
2023-01-23T06:34:19.080Z,72.64
2023-01-23T06:36:59.282Z,72.73
2023-01-23T06:39:32.192Z,72.66
2023-01-23T06:42:09.902Z,72.46
2023-01-23T06:44:45.752Z,72.71
2023-01-23T06:47:20.053Z,72.73
2023-01-23T06:50:01.109Z,72.80
2023-01-23T06:52:34.840Z,72.75
2023-01-23T06:55:12.188Z,72.78
2023-01-23T06:57:46.599Z,72.46
2023-01-23T07:00:20.997Z,72.44
2023-01-23T07:02:58.970Z,72.29
2023-01-23T07:05:32.629Z,72.19
2023-01-23T07:08:05.172Z,72.50
2023-01-23T07:10:38.899Z,72.32
2023-01-23T07:13:12.686Z,72.28
2023-01-23T07:15:47.815Z,72.26
2023-01-23T07:18:20.465Z,72.18
2023-01-23T07:20:53.787Z,72.41
2023-01-23T07:23:26.332Z,72.59
2023-01-23T07:26:03.928Z,72.74
2023-01-23T07:28:36.320Z,72.73
2023-01-23T07:31:09.161Z,72.61
2023-01-23T07:33:44.334Z,72.39
2023-01-23T07:36:18.577Z,71.99
2023-01-23T07:38:51.258Z,72.06
2023-01-23T07:41:23.774Z,71.70
2023-01-23T07:43:56.071Z,71.67
2023-01-23T07:46:29.163Z,71.85
2023-01-23T07:49:01.770Z,72.37
2023-01-23T07:51:35.298Z,72.56
2023-01-23T07:54:08.347Z,72.55
2023-01-23T07:56:40.784Z,72.60
2023-01-23T07:59:14.694Z,72.38
2023-01-23T08:01:48.994Z,72.47
2023-01-23T08:04:21.807Z,72.37
2023-01-23T08:06:54.248Z,72.43
2023-01-23T08:09:26.969Z,72.12
2023-01-23T08:11:59.468Z,72.43
2023-01-23T08:14:32.304Z,72.33
2023-01-23T08:17:04.876Z,72.20
2023-01-23T08:19:37.220Z,72.33
2023-01-23T08:22:09.722Z,72.23
2023-01-23T08:24:42.496Z,72.28
2023-01-23T08:27:14.958Z,72.40
2023-01-23T08:29:47.610Z,72.54
2023-01-23T08:32:20.193Z,72.33
2023-01-23T08:34:52.965Z,71.67
2023-01-23T08:37:25.392Z,71.66
2023-01-23T08:39:57.744Z,72.05
2023-01-23T08:42:30.245Z,72.27
2023-01-23T08:45:02.619Z,72.34
2023-01-23T08:47:37.151Z,72.37
2023-01-23T08:50:09.897Z,72.18
2023-01-23T08:52:42.348Z,72.15
2023-01-23T08:55:14.855Z,72.19
2023-01-23T08:57:47.254Z,72.22
2023-01-23T09:00:21.641Z,72.16
2023-01-23T09:02:54.612Z,72.22
2023-01-23T09:05:27.283Z,71.97
2023-01-23T09:08:00.724Z,72.28
2023-01-23T09:10:33.334Z,72.34
2023-01-23T09:13:06.479Z,72.21
2023-01-23T09:15:40.915Z,72.03
2023-01-23T09:18:13.428Z,71.90
2023-01-23T09:20:45.904Z,72.05
2023-01-23T09:23:18.464Z,72.04
2023-01-23T09:25:51.374Z,72.05
2023-01-23T09:28:24.231Z,72.13
2023-01-23T09:30:56.587Z,72.15
2023-01-23T09:33:29.195Z,72.04
2023-01-23T09:36:01.828Z,71.71
2023-01-23T09:38:34.696Z,71.93
2023-01-23T09:41:17.651Z,71.92
2023-01-23T09:43:59.332Z,71.61
2023-01-23T09:46:38.213Z,71.38
2023-01-23T09:49:19.025Z,71.15
2023-01-23T09:51:56.838Z,71.45
2023-01-23T09:54:38.863Z,71.33
2023-01-23T09:57:16.763Z,71.48
2023-01-23T10:00:00.163Z,71.53
2023-01-23T10:02:34.189Z,71.15
2023-01-23T10:05:13.853Z,71.21
2023-01-23T10:07:59.316Z,71.77
2023-01-23T10:10:58.654Z,71.83
2023-01-23T10:13:50.047Z,71.78
2023-01-23T10:16:50.088Z,71.77
2023-01-23T10:19:37.412Z,71.49
2023-01-23T10:22:23.153Z,71.11
2023-01-23T10:24:58.365Z,71.30
2023-01-23T10:27:36.233Z,71.56
2023-01-23T10:30:30.369Z,71.41
2023-01-23T10:33:10.959Z,70.97
2023-01-23T10:35:51.717Z,70.31
2023-01-23T10:38:33.729Z,70.97
2023-01-23T10:41:15.655Z,70.70
2023-01-23T10:43:51.017Z,70.60
2023-01-23T10:46:29.254Z,70.63
2023-01-23T10:49:02.759Z,70.75
2023-01-23T10:51:46.267Z,70.51
2023-01-23T10:54:31.366Z,70.95
2023-01-23T10:57:19.862Z,70.54
2023-01-23T10:59:57.751Z,70.55
2023-01-23T11:02:34.736Z,70.42
2023-01-23T11:05:50.394Z,71.03
2023-01-23T11:08:30.322Z,71.02
2023-01-23T11:11:25.561Z,70.58
2023-01-23T11:14:13.148Z,70.56
2023-01-23T11:16:45.775Z,70.92
2023-01-23T11:19:23.761Z,71.37
2023-01-23T11:21:58.160Z,71.43
2023-01-23T11:24:41.069Z,71.35
2023-01-23T11:27:24.447Z,70.29
2023-01-23T11:30:07.973Z,70.01
2023-01-23T11:32:47.927Z,70.19
2023-01-23T11:35:26.333Z,69.99
2023-01-23T11:38:03.533Z,70.15
2023-01-23T11:40:36.188Z,70.08
2023-01-23T11:43:15.477Z,69.63
2023-01-23T11:46:02.356Z,69.67
2023-01-23T11:48:49.245Z,69.81
2023-01-23T11:51:29.991Z,70.02
2023-01-23T11:54:17.724Z,70.46
2023-01-23T11:57:01.825Z,70.23
2023-01-23T11:59:56.338Z,69.71
2023-01-23T12:03:13.466Z,70.34
2023-01-23T12:06:31.049Z,70.54
2023-01-23T12:09:11.056Z,70.31
2023-01-23T12:11:58.476Z,70.09
2023-01-23T12:14:37.633Z,70.10
2023-01-23T12:17:24.648Z,70.40
2023-01-23T12:20:19.813Z,71.16
2023-01-23T12:22:57.720Z,71.52
2023-01-23T12:25:35.118Z,71.70
2023-01-23T12:28:21.021Z,70.90
2023-01-23T12:31:06.749Z,70.08
2023-01-23T12:34:00.794Z,70.07
2023-01-23T12:37:08.151Z,69.92
2023-01-23T12:40:00.941Z,70.37
2023-01-23T12:42:41.305Z,70.16
2023-01-23T12:45:22.388Z,69.94
2023-01-23T12:48:04.140Z,70.02
2023-01-23T12:50:44.309Z,70.16
2023-01-23T12:53:18.678Z,70.43
2023-01-23T12:55:59.001Z,70.42
2023-01-23T12:58:35.491Z,70.08
2023-01-23T13:01:35.541Z,70.57
2023-01-23T13:04:24.447Z,70.65
2023-01-23T13:07:10.441Z,70.33
2023-01-23T13:10:02.599Z,70.22
2023-01-23T13:12:35.552Z,70.46
2023-01-23T13:15:40.997Z,70.28
2023-01-23T13:18:28.196Z,70.67
2023-01-23T13:21:24.136Z,70.88
2023-01-23T13:24:42.017Z,70.65
2023-01-23T13:27:45.710Z,70.69
2023-01-23T13:30:44.979Z,70.99
2023-01-23T13:33:55.227Z,71.39
2023-01-23T13:36:37.159Z,71.43
2023-01-23T13:39:29.793Z,71.48
2023-01-23T13:42:45.857Z,71.46
2023-01-23T13:45:30.509Z,71.21
2023-01-23T14:21:27.778Z,71.50
2023-01-23T14:24:04.192Z,71.89
2023-01-23T14:26:37.237Z,71.39
2023-01-23T14:29:23.052Z,71.16
2023-01-23T14:31:56.158Z,71.32
2023-01-23T14:34:29.116Z,71.39
2023-01-23T14:37:05.734Z,71.36
2023-01-23T14:39:42.362Z,71.07
2023-01-23T14:42:24.799Z,71.21
2023-01-23T14:45:00.821Z,71.28
2023-01-23T14:47:42.223Z,71.56
2023-01-23T14:50:22.838Z,71.57
2023-01-23T14:53:02.334Z,71.49
2023-01-23T14:55:40.573Z,71.59
2023-01-23T14:58:19.998Z,71.68
2023-01-23T15:00:54.933Z,71.85
2023-01-23T15:03:42.713Z,71.97
2023-01-23T15:06:20.460Z,71.89
2023-01-23T15:08:53.558Z,71.49
2023-01-23T15:11:31.242Z,71.37
2023-01-23T15:14:04.695Z,71.69
2023-01-23T15:16:39.316Z,71.99
2023-01-23T15:19:23.164Z,71.55
2023-01-23T15:22:08.273Z,71.94
2023-01-23T15:24:41.502Z,72.31
2023-01-23T15:27:36.941Z,72.32
2023-01-23T15:30:39.154Z,72.02
2023-01-23T15:33:29.158Z,71.87
2023-01-23T15:36:12.158Z,72.00
2023-01-23T15:38:55.621Z,72.07
2023-01-23T15:41:45.458Z,72.28
2023-01-23T15:44:19.513Z,72.18
2023-01-23T15:46:52.679Z,72.01
2023-01-23T15:49:26.486Z,72.24
2023-01-23T15:52:01.881Z,72.32
2023-01-23T15:54:38.253Z,71.87
2023-01-23T15:57:16.233Z,71.83
2023-01-23T15:59:48.813Z,72.19
2023-01-23T16:02:32.923Z,72.19
2023-01-23T16:05:10.950Z,72.37
2023-01-23T16:07:45.397Z,72.33
2023-01-23T16:10:25.050Z,72.18
2023-01-23T16:12:59.106Z,72.23
2023-01-23T16:15:33.173Z,72.32
2023-01-23T16:18:06.037Z,72.44
2023-01-23T16:20:41.382Z,72.37
2023-01-23T16:23:19.363Z,72.48
2023-01-23T16:25:53.390Z,72.63
2023-01-23T16:28:27.282Z,72.37
2023-01-23T16:31:00.015Z,72.17
2023-01-23T16:33:32.680Z,72.33
2023-01-23T16:36:06.343Z,72.50
2023-01-23T16:38:39.111Z,72.56
2023-01-23T16:41:12.314Z,72.37
2023-01-23T16:43:49.452Z,72.52
2023-01-23T16:46:22.319Z,72.64
2023-01-23T16:48:57.068Z,72.85
2023-01-23T16:51:29.818Z,73.28
2023-01-23T16:54:14.234Z,73.34
2023-01-23T16:56:52.834Z,73.25
2023-01-23T16:59:32.654Z,73.22
2023-01-23T17:02:20.487Z,72.93
2023-01-23T17:04:53.579Z,72.94
2023-01-23T17:07:32.341Z,72.95
2023-01-23T17:10:29.795Z,72.74
2023-01-23T17:13:10.006Z,72.75
2023-01-23T17:15:42.933Z,72.70
2023-01-23T17:18:24.242Z,72.54
2023-01-23T17:20:57.670Z,72.62
2023-01-23T17:23:30.332Z,72.78
2023-01-23T17:26:03.286Z,72.74
2023-01-23T17:28:35.855Z,72.49
2023-01-23T17:31:22.824Z,72.57
2023-01-23T17:33:57.416Z,72.62
2023-01-23T17:36:29.941Z,72.47
2023-01-23T17:39:02.747Z,72.50
2023-01-23T17:41:36.450Z,72.31
2023-01-23T17:44:10.242Z,72.32
2023-01-23T17:46:43.119Z,72.47
2023-01-23T17:49:30.046Z,72.32
2023-01-23T17:52:03.704Z,72.09
2023-01-23T17:54:37.526Z,72.20
2023-01-23T17:57:10.624Z,72.07
2023-01-23T17:59:43.235Z,72.06
2023-01-23T18:02:29.970Z,72.00
2023-01-23T18:05:03.110Z,72.17
2023-01-23T18:07:48.464Z,72.29
2023-01-23T18:10:29.815Z,72.36
2023-01-23T18:13:13.773Z,72.29
2023-01-23T18:15:57.745Z,72.23
2023-01-23T18:18:34.628Z,72.14
2023-01-23T18:21:14.941Z,72.18
2023-01-23T18:23:49.485Z,72.11
2023-01-23T18:26:34.339Z,72.10
2023-01-23T18:29:11.559Z,72.20
2023-01-23T18:31:57.963Z,72.16
2023-01-23T18:34:38.664Z,72.24
2023-01-23T18:37:21.164Z,72.14
2023-01-23T18:40:04.711Z,71.99
2023-01-23T18:42:45.665Z,72.05
2023-01-23T18:45:26.983Z,72.17
2023-01-23T18:48:04.668Z,72.15
2023-01-23T18:50:45.043Z,72.26
2023-01-23T18:53:29.876Z,72.25
2023-01-23T18:56:22.438Z,72.17
2023-01-23T18:59:12.082Z,72.20
2023-01-23T19:01:55.816Z,72.20
2023-01-23T19:04:37.626Z,71.99
2023-01-23T19:07:19.452Z,72.13
2023-01-23T19:09:54.491Z,72.22
2023-01-23T19:12:49.496Z,72.17
2023-01-23T19:15:30.362Z,72.06
2023-01-23T19:18:13.818Z,72.07
2023-01-23T19:20:57.621Z,72.14
2023-01-23T19:23:38.566Z,72.04
2023-01-23T19:26:14.474Z,72.14
2023-01-23T19:28:48.770Z,72.20
2023-01-23T19:31:26.647Z,72.07
2023-01-23T19:34:01.598Z,72.05
2023-01-23T19:36:37.211Z,72.21
2023-01-23T19:39:12.819Z,72.05
2023-01-23T19:41:47.550Z,72.13
2023-01-23T19:44:24.911Z,72.14
2023-01-23T19:46:58.643Z,72.17
2023-01-23T19:49:31.875Z,72.08
2023-01-23T19:52:05.295Z,72.10
2023-01-23T19:54:38.337Z,71.87
2023-01-23T19:57:13.536Z,71.89
2023-01-23T19:59:47.198Z,71.90
2023-01-23T20:02:23.356Z,72.01
2023-01-23T20:04:59.173Z,71.91
2023-01-23T20:07:43.160Z,71.86
2023-01-23T20:10:16.993Z,71.73
2023-01-23T20:12:52.310Z,71.80
2023-01-23T20:15:26.989Z,71.81
2023-01-23T20:18:00.359Z,71.90
2023-01-23T20:20:33.426Z,71.77
2023-01-23T20:23:06.355Z,71.68
2023-01-23T20:25:39.445Z,71.80
2023-01-23T20:28:12.922Z,71.91
2023-01-23T20:30:45.906Z,71.78
2023-01-23T20:33:18.966Z,71.84
2023-01-23T20:35:55.335Z,71.97
2023-01-23T20:38:29.276Z,71.80
2023-01-23T20:41:07.895Z,71.96
2023-01-23T20:43:42.977Z,72.06
2023-01-23T20:46:19.169Z,71.91
2023-01-23T20:48:52.732Z,72.08
2023-01-23T20:51:27.168Z,72.15
2023-01-23T20:54:01.064Z,72.27
2023-01-23T20:56:33.951Z,72.08
2023-01-23T20:59:24.095Z,72.03
2023-01-23T21:02:14.244Z,72.13
2023-01-23T21:04:47.669Z,72.12
2023-01-23T21:07:23.172Z,72.05
2023-01-23T21:09:56.483Z,72.19
2023-01-23T21:12:29.970Z,72.01
2023-01-23T21:15:03.518Z,72.05
2023-01-23T21:17:36.876Z,71.93
2023-01-23T21:20:12.631Z,71.91
2023-01-23T21:22:45.482Z,71.98
2023-01-23T21:25:19.172Z,71.95
2023-01-23T21:27:52.466Z,71.93
2023-01-23T21:30:25.548Z,71.99
2023-01-23T21:43:24.711Z,72.27
2023-01-23T21:45:58.273Z,72.29
2023-01-23T21:48:33.641Z,72.28
2023-01-23T21:51:11.672Z,72.15
2023-01-23T21:53:46.008Z,72.10
2023-01-23T21:56:21.464Z,72.17
2023-01-23T21:58:54.212Z,72.09
2023-01-23T22:01:35.460Z,72.19
2023-01-23T22:04:10.393Z,72.10
2023-01-23T22:06:42.510Z,71.88
2023-01-23T22:09:18.681Z,71.98
2023-01-23T22:11:51.571Z,71.77
2023-01-23T22:14:24.610Z,71.86
2023-01-23T22:16:57.509Z,71.79
2023-01-23T22:19:30.526Z,71.94
2023-01-23T22:22:03.048Z,71.94
2023-01-23T22:24:35.539Z,72.15
2023-01-23T22:27:08.093Z,72.24
2023-01-23T22:29:40.528Z,72.24
2023-01-23T22:32:13.189Z,72.16
2023-01-23T22:34:45.639Z,72.13
2023-01-23T22:37:19.243Z,72.15
2023-01-23T22:39:53.102Z,71.97
2023-01-23T22:42:25.755Z,71.93
2023-01-23T22:44:58.323Z,72.00
2023-01-23T22:47:31.333Z,72.10
2023-01-23T22:50:04.422Z,72.10
2023-01-23T22:52:36.916Z,72.12
2023-01-23T22:55:11.380Z,72.05
2023-01-23T22:57:44.073Z,71.93
2023-01-23T23:00:18.214Z,71.80
2023-01-23T23:02:50.649Z,71.83
2023-01-23T23:05:23.428Z,72.02
2023-01-23T23:07:56.182Z,71.93
2023-01-23T23:10:28.644Z,71.94
2023-01-23T23:13:01.023Z,72.13
2023-01-23T23:15:33.616Z,71.84
2023-01-23T23:18:06.637Z,71.88
2023-01-23T23:20:39.195Z,71.97
2023-01-23T23:23:12.015Z,71.87
2023-01-23T23:25:44.476Z,71.97
2023-01-23T23:28:16.816Z,71.96
2023-01-23T23:30:49.363Z,71.92
2023-01-23T23:33:22.224Z,71.90
2023-01-23T23:35:55.251Z,71.87
2023-01-23T23:38:27.731Z,72.03
2023-01-23T23:41:03.706Z,71.78
2023-01-23T23:43:36.896Z,71.79
2023-01-23T23:46:12.007Z,71.68
2023-01-23T23:48:46.207Z,71.84
2023-01-23T23:51:20.237Z,71.91
2023-01-23T23:53:52.958Z,71.86
2023-01-23T23:56:27.964Z,71.94
2023-01-23T23:59:00.791Z,71.76
